Time;durP1;ratioP1;P1;durP2;ratioP2;P2;SDS_P1;SDS_P2;PMS_P1;PMS_P2;Temp;Humidity;BMP_temperature;BMP_pressure;BME280_temperature;BME280_humidity;BME280_pressure;Samples;Min_cycle;Max_cycle;Signal;HPM_P1;HPM_P2
2022/06/02 00:00:14;;;;;;;4.15;1.67;;;17.70;99.90;;;;;;5054402;28;20513;-87
2022/06/02 00:03:01;;;;;;;4.22;1.83;;;17.60;99.90;;;;;;5043803;28;20047;-87
2022/06/02 00:05:50;;;;;;;2.70;1.65;;;17.60;99.90;;;;;;5043175;28;20045;-87
2022/06/02 00:08:44;;;;;;;3.28;1.77;;;17.60;99.90;;;;;;5053665;28;20056;-86
2022/06/02 00:11:49;;;;;;;2.55;1.88;;;17.60;99.90;;;;;;5048678;28;20052;-87
2022/06/02 00:14:40;;;;;;;2.53;1.30;;;17.50;99.90;;;;;;5051775;28;20044;-86
2022/06/02 00:17:32;;;;;;;3.05;1.30;;;17.50;99.90;;;;;;5053343;28;20051;-86
2022/06/02 00:20:19;;;;;;;4.03;1.70;;;17.50;99.90;;;;;;5054255;28;20044;-85
2022/06/02 00:22:57;;;;;;;4.10;1.60;;;17.40;99.90;;;;;;5047995;28;20048;-86
2022/06/02 00:25:39;;;;;;;5.38;1.52;;;17.30;99.90;;;;;;5053109;28;20041;-86
2022/06/02 00:28:37;;;;;;;1.95;1.38;;;17.20;99.90;;;;;;5053519;28;20480;-86
2022/06/02 00:31:28;;;;;;;2.80;1.20;;;17.10;99.90;;;;;;5046314;28;20494;-86
2022/06/02 00:34:29;;;;;;;4.07;1.80;;;17.00;99.90;;;;;;5066139;28;20072;-87
2022/06/02 00:37:23;;;;;;;2.13;1.67;;;16.90;99.90;;;;;;5052188;28;20086;-86
2022/06/02 00:39:51;;;;;;;4.65;1.60;;;16.80;99.90;;;;;;5061343;28;20051;-87
2022/06/02 00:42:24;;;;;;;2.10;1.50;;;16.80;99.90;;;;;;5045054;28;20051;-85
2022/06/02 00:44:56;;;;;;;3.50;1.80;;;16.70;99.90;;;;;;5063461;28;20048;-87
2022/06/02 00:47:53;;;;;;;2.03;1.50;;;16.70;99.90;;;;;;5047274;28;20040;-86
2022/06/02 00:50:26;;;;;;;2.58;1.33;;;16.60;99.90;;;;;;5065781;28;20053;-87
2022/06/02 00:53:08;;;;;;;2.95;1.42;;;16.50;99.90;;;;;;5054753;28;20049;-87
2022/06/02 00:59:00;;;;;;;5.00;1.75;;;16.40;99.90;;;;;;5062267;28;20049;-87
2022/06/02 01:01:31;;;;;;;3.38;1.48;;;16.30;99.90;;;;;;5062160;28;20041;-85
2022/06/02 01:04:02;;;;;;;2.05;1.50;;;16.30;99.90;;;;;;5053703;28;20557;-86
2022/06/02 01:06:41;;;;;;;;;;;16.20;99.90;;;;;;5046082;28;20464;-86
2022/06/02 01:09:22;;;;;;;2.33;1.67;;;16.20;99.90;;;;;;5062728;28;19920;-87
2022/06/02 01:12:00;;;;;;;3.28;1.60;;;16.20;99.90;;;;;;5047665;28;20421;-87
2022/06/02 01:14:33;;;;;;;2.05;1.38;;;16.10;99.90;;;;;;5062379;28;20041;-86
2022/06/02 01:17:20;;;;;;;3.20;1.80;;;16.10;99.90;;;;;;5062550;28;20040;-87
2022/06/02 01:20:25;;;;;;;2.90;1.58;;;16.00;99.90;;;;;;5043795;28;20045;-87
2022/06/02 01:23:39;;;;;;;4.25;1.60;;;16.00;99.90;;;;;;5049237;28;20528;-86
2022/06/02 01:26:26;;;;;;;3.60;1.38;;;16.00;99.90;;;;;;5071613;28;20131;-86
2022/06/02 01:29:23;;;;;;;1.75;1.40;;;15.90;99.90;;;;;;5064653;28;20136;-86
2022/06/02 01:32:15;;;;;;;5.25;1.90;;;15.90;99.90;;;;;;5063181;28;20095;-87
2022/06/02 01:35:03;;;;;;;6.97;1.92;;;15.80;99.90;;;;;;5062808;28;20124;-87
2022/06/02 01:38:08;;;;;;;4.10;1.70;;;15.80;99.90;;;;;;5060916;28;20490;-86
2022/06/02 01:40:55;;;;;;;2.67;1.60;;;15.80;99.90;;;;;;5037484;28;20127;-86
2022/06/02 01:43:49;;;;;;;3.15;1.70;;;15.70;99.90;;;;;;5045289;28;20418;-87
2022/06/02 01:46:36;;;;;;;3.50;2.30;;;15.70;99.90;;;;;;5052818;28;20048;-87
2022/06/02 01:49:02;;;;;;;3.17;1.77;;;15.70;99.90;;;;;;5060936;28;20077;-87
2022/06/02 01:51:57;;;;;;;2.80;1.88;;;15.60;99.90;;;;;;5052372;28;20087;-86
2022/06/02 01:54:42;;;;;;;3.92;2.05;;;15.70;99.90;;;;;;5063177;28;20477;-86
2022/06/02 01:57:29;;;;;;;2.88;1.80;;;15.70;99.90;;;;;;5059130;28;20422;-87
2022/06/02 02:00:12;;;;;;;3.17;1.70;;;15.70;99.90;;;;;;5061699;28;20136;-86
2022/06/02 02:03:00;;;;;;;8.00;1.95;;;15.70;99.90;;;;;;5043827;28;20124;-86
2022/06/02 02:05:33;;;;;;;3.25;2.10;;;15.70;99.90;;;;;;5052625;28;20053;-86
2022/06/02 02:08:33;;;;;;;2.13;1.90;;;15.70;99.90;;;;;;5051024;28;20049;-86
2022/06/02 02:11:20;;;;;;;4.65;1.50;;;15.80;99.90;;;;;;5061623;28;20053;-86
2022/06/02 02:14:05;;;;;;;4.95;2.10;;;15.80;99.90;;;;;;5059800;28;20049;-86
2022/06/02 02:17:16;;;;;;;3.25;1.85;;;15.80;99.90;;;;;;5063258;28;20140;-87
2022/06/02 02:19:45;;;;;;;3.08;2.05;;;15.80;99.90;;;;;;5023938;28;20049;-87
2022/06/02 02:22:15;;;;;;;2.78;1.75;;;15.90;99.90;;;;;;5051891;28;20592;-86
2022/06/02 02:25:00;;;;;;;3.20;1.75;;;15.90;99.90;;;;;;5045591;28;20486;-86
2022/06/02 02:28:03;;;;;;;1.92;1.67;;;15.90;99.90;;;;;;5060998;28;20076;-86
2022/06/02 02:30:45;;;;;;;4.22;1.70;;;16.00;99.90;;;;;;5059794;28;20535;-87
2022/06/02 02:33:50;;;;;;;3.50;1.95;;;16.00;99.90;;;;;;5044265;28;20056;-86
2022/06/02 02:36:24;;;;;;;2.30;1.73;;;16.00;99.90;;;;;;5058650;28;20055;-86
2022/06/02 02:39:20;;;;;;;3.78;1.65;;;16.10;99.90;;;;;;5062226;28;20059;-87
2022/06/02 02:42:02;;;;;;;2.83;1.90;;;16.10;99.90;;;;;;5061435;28;20053;-86
2022/06/02 02:45:08;;;;;;;3.25;1.60;;;16.10;99.90;;;;;;5045878;28;20517;-86
2022/06/02 02:47:48;;;;;;;2.88;1.75;;;16.10;99.90;;;;;;5061184;28;20055;-86
2022/06/02 02:50:27;;;;;;;3.40;1.70;;;16.10;99.90;;;;;;5059878;28;20052;-87
2022/06/02 02:53:02;;;;;;;3.88;1.85;;;16.00;99.90;;;;;;5043033;28;20053;-87
2022/06/02 02:55:39;;;;;;;2.45;1.80;;;16.00;99.90;;;;;;5059900;28;20071;-85
2022/06/02 02:58:25;;;;;;;4.57;2.08;;;16.00;99.90;;;;;;5046020;28;20060;-86
2022/06/02 03:01:10;;;;;;;4.88;1.75;;;16.00;99.90;;;;;;5048585;28;20041;-87
2022/06/02 03:03:45;;;;;;;4.70;1.85;;;15.90;99.90;;;;;;5051454;28;20055;-86
2022/06/02 03:06:26;;;;;;;6.35;2.03;;;15.80;99.90;;;;;;5039846;28;20059;-86
2022/06/02 03:09:17;;;;;;;2.30;1.65;;;15.90;99.90;;;;;;5050967;28;20049;-87
2022/06/02 03:11:52;;;;;;;3.25;1.80;;;15.90;99.90;;;;;;5059335;28;20529;-87
2022/06/02 03:14:40;;;;;;;2.25;1.77;;;15.80;99.90;;;;;;5043251;28;20053;-86
2022/06/02 03:17:13;;;;;;;2.60;1.70;;;15.80;99.90;;;;;;5060015;28;20472;-86
2022/06/02 03:19:52;;;;;;;2.85;1.73;;;15.70;99.90;;;;;;5051407;28;20048;-87
2022/06/02 03:22:34;;;;;;;6.65;1.90;;;15.60;99.90;;;;;;5050012;28;20045;-86
2022/06/02 03:25:13;;;;;;;5.18;1.85;;;15.50;99.90;;;;;;5052147;28;20123;-86
2022/06/02 03:28:13;;;;;;;5.03;1.73;;;15.40;99.90;;;;;;5065974;28;20045;-87
2022/06/02 03:30:54;;;;;;;1.70;1.43;;;15.30;99.90;;;;;;5045503;28;20053;-86
2022/06/02 03:33:56;;;;;;;2.47;1.80;;;15.20;99.90;;;;;;5051070;28;20488;-86
2022/06/02 03:36:50;;;;;;;2.97;1.33;;;15.20;99.90;;;;;;4989889;28;20058;-87
2022/06/02 03:39:37;;;;;;;4.05;1.80;;;15.10;99.90;;;;;;5058898;28;20124;-85
2022/06/02 03:42:04;;;;;;;4.95;1.95;;;15.00;99.90;;;;;;5059134;28;20059;-86
2022/06/02 03:44:58;;;;;;;5.00;1.83;;;15.00;99.90;;;;;;5066754;28;20087;-86
2022/06/02 03:47:42;;;;;;;2.78;1.70;;;14.90;99.90;;;;;;5064183;28;20052;-86
2022/06/02 03:50:12;;;;;;;5.20;1.73;;;14.90;99.90;;;;;;5061635;28;20136;-86
2022/06/02 03:53:21;;;;;;;4.43;2.38;;;14.90;99.90;;;;;;5065276;28;20048;-84
2022/06/02 03:56:04;;;;;;;2.13;1.47;;;14.80;99.90;;;;;;5056436;28;20451;-84
2022/06/02 03:58:58;;;;;;;3.95;1.58;;;14.90;99.90;;;;;;5053415;28;20467;-86
2022/06/02 04:01:29;;;;;;;1.85;1.58;;;14.90;99.90;;;;;;5063890;28;20052;-86
2022/06/02 04:04:23;;;;;;;3.53;1.80;;;14.80;99.90;;;;;;5066686;28;20045;-84
2022/06/02 04:07:00;;;;;;;2.15;1.58;;;14.80;99.90;;;;;;5066150;28;20044;-86
2022/06/02 04:09:42;;;;;;;4.35;1.83;;;14.70;99.90;;;;;;5067237;28;20045;-87
2022/06/02 04:15:45;;;;;;;4.10;1.40;;;14.80;99.90;;;;;;5062446;28;20049;-86
2022/06/02 04:18:27;;;;;;;3.40;1.80;;;14.70;99.90;;;;;;5053880;28;20055;-84
2022/06/02 04:21:33;;;;;;;4.90;1.67;;;14.80;99.90;;;;;;5063242;28;20053;-87
2022/06/02 04:24:12;;;;;;;1.98;1.40;;;14.80;99.90;;;;;;5018712;28;20509;-86
2022/06/02 04:26:59;;;;;;;2.58;1.63;;;14.80;99.90;;;;;;5061627;28;20135;-86
2022/06/02 04:29:36;;;;;;;5.50;2.40;;;14.90;99.90;;;;;;5047297;28;20045;-86
2022/06/02 04:32:40;;;;;;;3.33;1.50;;;14.90;99.90;;;;;;5053097;28;20052;-86
2022/06/02 04:35:25;;;;;;;2.65;1.73;;;15.00;99.90;;;;;;5044322;28;20063;-85
2022/06/02 04:38:09;;;;;;;4.63;1.70;;;15.10;99.90;;;;;;5065161;28;20057;-84
2022/06/02 04:40:59;;;;;;;2.53;1.65;;;15.10;99.90;;;;;;5063202;28;20509;-86
2022/06/02 04:43:43;;;;;;;3.72;1.30;;;15.10;99.90;;;;;;5062365;28;20486;-84
2022/06/02 04:46:36;;;;;;;2.58;1.48;;;15.20;99.90;;;;;;5065203;28;20056;-85
2022/06/02 04:49:20;;;;;;;1.67;1.30;;;15.30;99.90;;;;;;5040048;28;20409;-85
2022/06/02 04:52:11;;;;;;;5.15;1.60;;;15.40;99.90;;;;;;5064806;28;20136;-86
2022/06/02 04:55:06;;;;;;;4.95;1.73;;;15.40;99.90;;;;;;5062680;28;20055;-86
2022/06/02 04:57:46;;;;;;;4.05;1.65;;;15.40;99.90;;;;;;5054009;28;20139;-86
2022/06/02 05:00:29;;;;;;;;;;;15.40;99.90;;;;;;5063411;28;20487;-86
2022/06/02 05:03:40;;;;;;;2.10;1.52;;;15.50;99.90;;;;;;5045056;28;19927;-86
2022/06/02 05:06:11;;;;;;;5.00;1.60;;;15.50;99.90;;;;;;5063943;28;20127;-86
2022/06/02 05:09:17;;;;;;;3.80;1.33;;;15.50;99.90;;;;;;5044308;28;20055;-86
2022/06/02 05:12:08;;;;;;;6.38;1.88;;;15.50;99.90;;;;;;5061716;28;20049;-86
2022/06/02 05:14:42;;;;;;;4.18;1.60;;;15.40;99.90;;;;;;5061081;28;20483;-85
2022/06/02 05:17:36;;;;;;;3.03;1.50;;;15.50;99.90;;;;;;5062991;28;20050;-85
2022/06/02 05:20:14;;;;;;;3.33;1.50;;;15.50;99.90;;;;;;5071814;28;20052;-86
2022/06/02 05:22:51;;;;;;;2.53;1.55;;;15.50;99.90;;;;;;5077439;28;20117;-85
2022/06/02 05:25:36;;;;;;;10.18;1.70;;;15.60;99.90;;;;;;5077979;28;20059;-85
2022/06/02 05:28:35;;;;;;;4.70;1.63;;;15.70;99.90;;;;;;5077462;28;20100;-84
2022/06/02 05:31:30;;;;;;;5.07;1.73;;;15.70;99.90;;;;;;5080520;28;20103;-86
2022/06/02 05:34:01;;;;;;;4.47;2.17;;;15.70;99.90;;;;;;5050540;28;20056;-85
2022/06/02 05:36:52;;;;;;;6.40;1.85;;;15.70;99.90;;;;;;5053142;28;20052;-85
2022/06/02 05:39:25;;;;;;;3.80;1.85;;;15.80;99.90;;;;;;5046833;28;20052;-85
2022/06/02 05:42:19;;;;;;;4.45;1.35;;;15.90;99.90;;;;;;5060061;28;20045;-86
2022/06/02 05:45:04;;;;;;;2.60;1.65;;;15.90;99.90;;;;;;5061284;28;20052;-85
2022/06/02 05:47:48;;;;;;;3.83;1.75;;;15.90;99.90;;;;;;5060996;28;20155;-85
2022/06/02 05:50:36;;;;;;;2.88;1.60;;;15.90;99.90;;;;;;5063065;28;20083;-86
2022/06/02 05:53:47;;;;;;;3.58;1.60;;;16.00;99.90;;;;;;5061614;28;20045;-85
2022/06/02 05:57:01;;;;;;;5.50;1.70;;;16.00;99.90;;;;;;5051239;28;20051;-85
2022/06/02 05:59:52;;;;;;;5.97;1.65;;;16.00;99.90;;;;;;5003893;28;20066;-84
2022/06/02 06:02:44;;;;;;;2.83;2.00;;;16.00;99.90;;;;;;5070613;28;20131;-84
2022/06/02 06:05:23;;;;;;;5.45;1.52;;;16.10;99.90;;;;;;5071187;28;20047;-82
2022/06/02 06:07:55;;;;;;;5.75;1.80;;;16.00;99.90;;;;;;5054117;28;20095;-84
2022/06/02 06:10:43;;;;;;;4.20;1.90;;;15.90;99.90;;;;;;5058993;28;20493;-84
2022/06/02 06:13:47;;;;;;;5.22;1.90;;;16.00;99.90;;;;;;5068953;28;20048;-84
2022/06/02 06:16:44;;;;;;;6.68;2.08;;;16.00;99.90;;;;;;5070440;28;20040;-84
2022/06/02 06:19:37;;;;;;;3.58;1.50;;;16.00;99.90;;;;;;5071492;28;20474;-84
2022/06/02 06:22:37;;;;;;;3.15;1.67;;;15.90;99.90;;;;;;5066756;28;20136;-84
2022/06/02 06:25:04;;;;;;;;;;;15.90;99.90;;;;;;5069098;28;20128;-83
2022/06/02 06:27:48;;;;;;;5.93;1.80;;;16.00;99.90;;;;;;5059906;28;19971;-85
2022/06/02 06:30:51;;;;;;;2.35;1.70;;;16.00;99.90;;;;;;5059260;28;20056;-84
2022/06/02 06:33:45;;;;;;;4.95;2.28;;;16.00;99.90;;;;;;5059708;28;20055;-82
2022/06/02 06:36:34;;;;;;;4.35;1.90;;;16.10;99.90;;;;;;5061722;28;20053;-84
2022/06/02 06:39:18;;;;;;;4.57;1.90;;;16.00;99.90;;;;;;5068582;28;20124;-84
2022/06/02 06:42:12;;;;;;;6.05;1.75;;;16.10;99.90;;;;;;5060033;28;20131;-84
2022/06/02 06:44:44;;;;;;;4.53;1.90;;;16.10;99.90;;;;;;5059169;28;20048;-83
2022/06/02 06:47:30;;;;;;;5.57;2.17;;;16.20;99.90;;;;;;5047349;28;20495;-84
2022/06/02 06:50:23;;;;;;;3.10;1.70;;;16.20;99.90;;;;;;5067648;28;20570;-84
2022/06/02 06:53:21;;;;;;;2.97;1.75;;;16.20;99.90;;;;;;5050684;28;20056;-84
2022/06/02 06:56:11;;;;;;;3.05;1.90;;;16.30;99.90;;;;;;5056562;28;20049;-84
2022/06/02 06:58:47;;;;;;;7.85;2.08;;;16.30;99.90;;;;;;5068387;28;20055;-84
2022/06/02 07:01:44;;;;;;;7.63;2.00;;;16.30;99.90;;;;;;5068839;28;20136;-84
2022/06/02 07:04:34;;;;;;;3.72;2.03;;;16.50;99.90;;;;;;5081944;28;20087;-85
2022/06/02 07:07:17;;;;;;;2.67;1.88;;;16.70;99.90;;;;;;5079740;28;20052;-84
2022/06/02 07:09:57;;;;;;;3.78;1.90;;;16.90;99.90;;;;;;5076824;28;20076;-84
2022/06/02 07:12:53;;;;;;;4.22;1.77;;;17.10;99.90;;;;;;5079246;28;20045;-83
2022/06/02 07:15:40;;;;;;;4.75;1.85;;;17.30;99.90;;;;;;5080722;28;20095;-83
2022/06/02 07:18:35;;;;;;;4.35;2.00;;;17.60;99.90;;;;;;5077590;28;20045;-83
2022/06/02 07:21:16;;;;;;;2.25;1.60;;;17.80;99.90;;;;;;5072352;28;20088;-85
2022/06/02 07:24:15;;;;;;;3.30;2.08;;;18.00;99.90;;;;;;5079829;28;20125;-83
2022/06/02 07:27:10;;;;;;;6.55;1.80;;;18.10;99.90;;;;;;5081889;28;20052;-84
2022/06/02 07:30:03;;;;;;;4.82;1.50;;;18.30;99.90;;;;;;5081901;28;20040;-83
2022/06/02 07:33:02;;;;;;;6.85;1.90;;;18.60;99.90;;;;;;5079115;28;20053;-83
2022/06/02 07:36:01;;;;;;;6.75;2.05;;;18.60;99.90;;;;;;5055056;28;20049;-84
2022/06/02 07:38:56;;;;;;;3.60;1.92;;;18.80;99.90;;;;;;5073304;28;20053;-83
2022/06/02 07:41:38;;;;;;;7.40;2.22;;;18.80;99.90;;;;;;5074226;28;20045;-86
2022/06/02 07:44:42;;;;;;;5.60;2.38;;;19.00;99.90;;;;;;5054837;28;20049;-85
2022/06/02 07:47:24;;;;;;;9.43;2.25;;;19.10;99.90;;;;;;5040702;28;20045;-85
2022/06/02 07:50:07;;;;;;;;;;;19.40;99.90;;;;;;5060724;28;20049;-85
2022/06/02 07:53:05;;;;;;;5.47;2.60;;;19.50;99.90;;;;;;5074398;28;19980;-83
2022/06/02 07:55:41;;;;;;;3.72;1.80;;;19.70;99.90;;;;;;5076330;28;20048;-83
2022/06/02 07:58:49;;;;;;;3.03;1.80;;;19.80;99.90;;;;;;5061941;28;20048;-81
2022/06/02 08:01:20;;;;;;;5.03;2.55;;;19.90;99.90;;;;;;5053695;28;20041;-83
2022/06/02 08:03:53;;;;;;;4.25;2.15;;;19.80;99.90;;;;;;5072440;28;20100;-83
2022/06/02 08:06:52;;;;;;;5.45;1.90;;;19.80;99.90;;;;;;5074523;28;20044;-84
2022/06/02 08:09:36;;;;;;;11.02;2.55;;;19.70;99.90;;;;;;5056363;28;20044;-84
2022/06/02 08:12:13;;;;;;;5.13;2.13;;;19.60;99.90;;;;;;5074498;28;20127;-85
2022/06/02 08:14:51;;;;;;;8.02;2.70;;;19.50;99.90;;;;;;5075352;28;20080;-84
2022/06/02 08:17:56;;;;;;;5.93;1.95;;;19.60;99.90;;;;;;5056204;28;20049;-84
2022/06/02 08:20:42;;;;;;;3.95;2.17;;;19.60;99.90;;;;;;5046415;28;20509;-84
2022/06/02 08:23:24;;;;;;;4.88;2.58;;;19.60;99.90;;;;;;5073758;28;20128;-84
2022/06/02 08:26:08;;;;;;;3.10;2.20;;;19.70;99.90;;;;;;5071697;28;20071;-83
2022/06/02 08:28:43;;;;;;;10.27;2.13;;;19.50;99.90;;;;;;5071528;28;20104;-83
2022/06/02 08:31:32;;;;;;;4.85;1.95;;;19.70;99.90;;;;;;5073046;28;20057;-84
2022/06/02 08:34:21;;;;;;;8.02;2.40;;;19.80;99.90;;;;;;5072287;28;20057;-85
2022/06/02 08:37:09;;;;;;;5.90;2.72;;;19.60;99.90;;;;;;5075107;28;20066;-85
2022/06/02 08:39:53;;;;;;;5.75;2.45;;;19.60;99.90;;;;;;5076455;28;20112;-85
2022/06/02 08:42:19;;;;;;;3.28;2.42;;;19.50;99.90;;;;;;5074359;28;20502;-83
2022/06/02 08:45:05;;;;;;;4.72;2.30;;;19.60;99.90;;;;;;5072891;28;20051;-84
2022/06/02 08:47:53;;;;;;;4.80;2.28;;;19.60;99.90;;;;;;5055800;28;20073;-83
2022/06/02 08:50:52;;;;;;;4.13;2.13;;;19.60;99.90;;;;;;5072544;28;20055;-85
2022/06/02 08:53:39;;;;;;;4.63;1.95;;;19.80;99.90;;;;;;5072962;28;20072;-84
2022/06/02 08:56:37;;;;;;;5.28;2.25;;;20.10;99.90;;;;;;5074569;28;20108;-83
2022/06/02 08:59:39;;;;;;;4.03;2.40;;;20.30;99.90;;;;;;5072802;28;20048;-83
2022/06/02 09:02:43;;;;;;;8.02;2.15;;;20.60;99.90;;;;;;5072567;28;20041;-83
2022/06/02 09:05:16;;;;;;;7.07;2.47;;;20.70;99.90;;;;;;5077552;28;20041;-84
2022/06/02 09:07:52;;;;;;;9.40;2.50;;;20.60;99.90;;;;;;5072869;28;20339;-83
2022/06/02 09:10:57;;;;;;;7.38;2.80;;;20.70;99.90;;;;;;5061753;28;20049;-84
2022/06/02 09:13:45;;;;;;;3.60;2.95;;;20.70;99.90;;;;;;4992857;28;20051;-83
2022/06/02 09:16:21;;;;;;;4.78;2.75;;;20.70;99.90;;;;;;5071951;28;20048;-84
2022/06/02 09:19:13;;;;;;;6.95;2.30;;;20.90;99.90;;;;;;5054871;28;20044;-83
2022/06/02 09:21:52;;;;;;;4.25;2.75;;;21.00;99.90;;;;;;5073867;28;20044;-85
2022/06/02 09:24:45;;;;;;;7.18;2.50;;;20.80;99.90;;;;;;5052603;28;20048;-84
2022/06/02 09:27:31;;;;;;;4.80;2.20;;;20.60;99.90;;;;;;5071650;28;20116;-84
2022/06/02 09:30:12;;;;;;;4.50;3.10;;;20.40;99.90;;;;;;5060083;28;20136;-83
2022/06/02 09:32:44;;;;;;;5.63;2.42;;;20.20;99.90;;;;;;5055425;28;20049;-83
2022/06/02 09:35:20;;;;;;;5.80;2.47;;;20.00;99.90;;;;;;5071191;28;20052;-84
2022/06/02 09:38:05;;;;;;;9.32;2.47;;;19.90;99.90;;;;;;5071009;28;20084;-84
2022/06/02 09:40:51;;;;;;;5.68;2.30;;;19.80;99.90;;;;;;5073068;28;20113;-85
2022/06/02 09:43:35;;;;;;;6.30;2.50;;;19.70;99.90;;;;;;5065721;28;20048;-84
2022/06/02 09:46:40;;;;;;;6.78;2.90;;;19.60;99.90;;;;;;5076398;28;20041;-84
2022/06/02 09:49:46;;;;;;;6.38;2.20;;;19.60;99.90;;;;;;5073394;28;20053;-84
2022/06/02 09:52:40;;;;;;;5.85;2.40;;;19.90;99.90;;;;;;5074659;28;20057;-82
2022/06/02 09:55:28;;;;;;;5.43;2.10;;;20.20;99.90;;;;;;5072265;28;20534;-83
2022/06/02 09:58:05;;;;;;;9.77;2.95;;;20.30;99.90;;;;;;5067699;28;20049;-84
2022/06/02 10:00:32;;;;;;;15.48;3.17;;;20.60;99.90;;;;;;5065596;28;20062;-85
2022/06/02 10:03:15;;;;;;;5.75;1.92;;;20.70;99.90;;;;;;5070279;28;20128;-84
2022/06/02 10:05:49;;;;;;;11.57;2.83;;;21.00;99.90;;;;;;5053364;28;20056;-84
2022/06/02 10:08:38;;;;;;;8.23;2.22;;;21.10;99.90;;;;;;5075750;28;20069;-84
2022/06/02 10:11:26;;;;;;;5.90;2.17;;;21.10;99.90;;;;;;5069772;28;20052;-85
2022/06/02 10:14:35;;;;;;;9.68;2.20;;;21.10;99.90;;;;;;5079319;28;20045;-84
2022/06/02 10:17:40;;;;;;;7.47;2.17;;;21.20;99.90;;;;;;5042174;28;20072;-83
2022/06/02 10:20:20;;;;;;;5.15;1.63;;;21.40;99.90;;;;;;5070492;28;20053;-83
2022/06/02 10:23:05;;;;;;;5.47;2.30;;;21.40;99.90;;;;;;5068865;28;20105;-83
2022/06/02 10:25:56;;;;;;;5.68;2.00;;;21.60;99.90;;;;;;5069727;28;20045;-85
2022/06/02 10:28:42;;;;;;;5.60;2.17;;;21.70;99.90;;;;;;5071175;28;20103;-84
2022/06/02 10:31:11;;;;;;;4.93;1.60;;;21.70;99.90;;;;;;5071577;28;20502;-83
2022/06/02 10:33:53;;;;;;;4.15;2.10;;;21.90;99.90;;;;;;5071461;28;20486;-84
2022/06/02 10:36:49;;;;;;;2.45;1.75;;;22.10;99.90;;;;;;5068577;28;20057;-84
2022/06/02 10:39:37;;;;;;;6.50;1.35;;;22.20;99.90;;;;;;5051192;28;20060;-84
2022/06/02 10:42:27;;;;;;;3.40;1.70;;;22.50;99.90;;;;;;5069132;28;20411;-84
2022/06/02 10:45:37;;;;;;;2.55;1.27;;;22.40;99.90;;;;;;5067522;28;20132;-84
2022/06/02 10:48:25;;;;;;;6.13;1.95;;;22.30;99.90;;;;;;5071068;28;20087;-83
2022/06/02 10:50:55;;;;;;;3.42;1.55;;;22.20;99.90;;;;;;5070437;28;20049;-83
2022/06/02 10:53:56;;;;;;;6.60;2.20;;;22.10;99.90;;;;;;5066955;28;20053;-83
2022/06/02 10:56:47;;;;;;;3.58;1.65;;;21.90;99.90;;;;;;5074940;28;20489;-83
2022/06/02 10:59:59;;;;;;;9.43;2.35;;;21.90;99.90;;;;;;5073862;28;20159;-84
2022/06/02 11:02:31;;;;;;;3.03;1.67;;;22.00;99.90;;;;;;5076213;28;20482;-84
2022/06/02 11:05:29;;;;;;;3.58;2.10;;;22.10;99.90;;;;;;5074922;28;20051;-84
2022/06/02 11:08:33;;;;;;;4.20;1.65;;;22.10;99.90;;;;;;5078010;28;20045;-84
2022/06/02 11:11:21;;;;;;;6.07;1.70;;;22.10;99.90;;;;;;5076929;28;20048;-85
2022/06/02 11:14:19;;;;;;;10.43;1.90;;;22.10;99.90;;;;;;5076413;28;20109;-83
2022/06/02 11:17:01;;;;;;;5.93;1.90;;;22.00;99.90;;;;;;5076630;28;20072;-84
2022/06/02 11:19:55;;;;;;;8.57;2.17;;;21.90;99.90;;;;;;5074413;28;20049;-84
2022/06/02 11:22:37;;;;;;;4.05;1.83;;;22.00;99.90;;;;;;5073229;28;20078;-84
2022/06/02 11:25:29;;;;;;;4.95;1.52;;;22.10;99.90;;;;;;5058938;28;20049;-84
2022/06/02 11:28:02;;;;;;;2.40;1.60;;;22.10;99.90;;;;;;5074163;28;20542;-83
2022/06/02 11:30:28;;;;;;;3.35;1.80;;;22.10;99.90;;;;;;5076075;28;20320;-83
2022/06/02 11:32:55;;;;;;;4.60;1.80;;;21.90;99.90;;;;;;5075922;28;20049;-84
2022/06/02 11:35:59;;;;;;;3.10;1.90;;;21.90;99.90;;;;;;5075561;28;20429;-83
2022/06/02 11:38:26;;;;;;;7.22;1.63;;;22.00;99.90;;;;;;5073788;28;20418;-84
2022/06/02 11:41:20;;;;;;;3.45;1.73;;;22.00;99.90;;;;;;5067781;28;20044;-83
2022/06/02 11:44:14;;;;;;;5.95;1.92;;;22.00;99.90;;;;;;5073327;28;20045;-83
2022/06/02 11:46:53;;;;;;;3.10;1.50;;;21.90;99.90;;;;;;5077374;28;20093;-84
2022/06/02 11:49:58;;;;;;;3.00;1.50;;;21.80;99.90;;;;;;5076026;28;20510;-84
2022/06/02 11:52:56;;;;;;;5.72;1.73;;;21.70;99.90;;;;;;5055407;28;20494;-84
2022/06/02 11:55:45;;;;;;;5.28;2.40;;;21.70;99.90;;;;;;5074891;28;20056;-84
2022/06/02 11:58:38;;;;;;;8.30;2.17;;;21.60;99.90;;;;;;5075184;28;20067;-84
2022/06/02 12:01:33;;;;;;;8.20;1.77;;;21.50;99.90;;;;;;5078933;28;20048;-84
2022/06/02 12:04:11;;;;;;;4.85;1.83;;;21.50;99.90;;;;;;5073023;28;20118;-83
2022/06/02 12:07:15;;;;;;;5.55;1.75;;;21.60;99.90;;;;;;5072210;28;20041;-83
2022/06/02 12:10:10;;;;;;;7.60;2.20;;;21.50;99.90;;;;;;5071592;28;20127;-82
2022/06/02 12:12:49;;;;;;;5.30;2.10;;;21.60;99.90;;;;;;5071153;28;20053;-84
2022/06/02 12:15:55;;;;;;;2.35;1.63;;;21.70;99.90;;;;;;5072823;28;20112;-84
2022/06/02 12:18:56;;;;;;;6.35;2.13;;;21.70;99.90;;;;;;5071124;28;20441;-84
2022/06/02 12:21:54;;;;;;;4.40;1.95;;;21.50;99.90;;;;;;5076189;28;20048;-84
2022/06/02 12:24:49;;;;;;;6.22;2.10;;;21.40;99.90;;;;;;5072065;28;20045;-84
2022/06/02 12:27:48;;;;;;;5.28;1.77;;;21.40;99.90;;;;;;5040314;28;20044;-84
2022/06/02 12:30:33;;;;;;;3.33;1.67;;;21.40;99.90;;;;;;5074284;28;20049;-85
2022/06/02 12:33:34;;;;;;;2.95;2.00;;;21.50;99.90;;;;;;5076178;28;20049;-84
2022/06/02 12:36:42;;;;;;;7.47;2.05;;;21.60;99.90;;;;;;5070954;28;20040;-83
2022/06/02 12:39:16;;;;;;;5.93;2.42;;;21.70;99.90;;;;;;5075919;28;20049;-85
2022/06/02 12:41:49;;;;;;;3.85;1.80;;;21.80;99.90;;;;;;5058193;28;20521;-84
2022/06/02 12:44:27;;;;;;;6.38;2.42;;;21.80;99.90;;;;;;5070441;28;20132;-84
2022/06/02 12:47:30;;;;;;;4.32;1.95;;;21.70;99.90;;;;;;5072030;28;20053;-83
2022/06/02 12:50:18;;;;;;;6.10;2.08;;;21.70;99.90;;;;;;5069662;28;20123;-84
2022/06/02 12:53:18;;;;;;;9.48;2.30;;;21.70;99.90;;;;;;5063250;28;20049;-84
2022/06/02 12:56:13;;;;;;;4.95;1.85;;;21.70;99.90;;;;;;5070757;28;20049;-82
2022/06/02 12:58:54;;;;;;;3.63;1.75;;;21.70;99.90;;;;;;5070661;28;20052;-84
2022/06/02 13:01:27;;;;;;;4.28;2.17;;;21.70;99.90;;;;;;5050643;28;20075;-84
2022/06/02 13:04:13;;;;;;;5.72;2.28;;;21.50;99.90;;;;;;5070602;28;20045;-83
2022/06/02 13:07:07;;;;;;;2.90;2.15;;;21.30;99.90;;;;;;5069609;28;20053;-82
2022/06/02 13:09:57;;;;;;;5.20;1.92;;;21.20;99.90;;;;;;5051636;28;20051;-83
2022/06/02 13:12:56;;;;;;;3.23;1.90;;;21.30;99.90;;;;;;5070570;28;20132;-83
2022/06/02 13:15:36;;;;;;;4.97;2.57;;;21.30;99.90;;;;;;5069381;28;20052;-83
2022/06/02 13:18:18;;;;;;;5.38;2.47;;;21.40;99.90;;;;;;5074977;28;20087;-84
2022/06/02 13:20:53;;;;;;;6.57;2.95;;;21.70;99.90;;;;;;5070868;28;20053;-84
2022/06/02 13:23:54;;;;;;;4.40;2.88;;;21.80;99.90;;;;;;5070459;28;20052;-84
2022/06/02 13:26:39;;;;;;;;;;;21.80;99.90;;;;;;5053025;28;20084;-83
2022/06/02 13:29:12;;;;;;;5.32;2.33;;;21.70;99.90;;;;;;5074136;28;19920;-82
2022/06/02 13:31:51;;;;;;;8.57;2.85;;;21.50;99.90;;;;;;5075355;28;20044;-84
2022/06/02 13:34:51;;;;;;;4.22;2.78;;;21.40;99.90;;;;;;5066646;28;20064;-84
2022/06/02 13:37:44;;;;;;;7.45;2.88;;;21.30;99.90;;;;;;5055711;28;20041;-82
2022/06/02 13:40:34;;;;;;;5.70;3.20;;;21.30;99.90;;;;;;5072147;28;20055;-83
2022/06/02 13:43:04;;;;;;;;;;;21.20;99.90;;;;;;5071195;28;20044;-85
2022/06/02 13:45:50;;;;;;;6.63;3.00;;;21.30;99.90;;;;;;5065322;28;19978;-84
2022/06/02 13:48:29;;;;;;;3.78;3.10;;;21.30;99.90;;;;;;5071588;28;20116;-84
2022/06/02 13:51:14;;;;;;;4.43;2.75;;;21.10;99.90;;;;;;5071007;28;21545;-80
2022/06/02 13:57:44;;;;;;;4.30;2.40;;;21.30;99.90;;;;;;5071668;28;20493;-84
2022/06/02 14:00:19;;;;;;;2.67;2.42;;;21.50;99.90;;;;;;5040791;28;20112;-83
2022/06/02 14:03:11;;;;;;;5.78;2.58;;;21.60;99.90;;;;;;5077459;28;20053;-82
2022/06/02 14:06:06;;;;;;;4.82;2.47;;;21.70;99.90;;;;;;5075728;28;20045;-82
2022/06/02 14:09:05;;;;;;;4.35;2.53;;;21.80;99.90;;;;;;5073741;28;20082;-84
2022/06/02 14:11:46;;;;;;;4.07;2.67;;;21.80;99.90;;;;;;5074681;28;20066;-83
2022/06/02 14:14:45;;;;;;;9.45;3.00;;;21.80;99.90;;;;;;5069672;28;20048;-82
2022/06/02 14:18:03;;;;;;;4.68;2.78;;;21.80;99.90;;;;;;5071203;28;20135;-83
2022/06/02 14:21:08;;;;;;;3.28;2.50;;;21.80;99.90;;;;;;4989722;28;20113;-83
2022/06/02 14:24:00;;;;;;;4.68;2.90;;;21.70;99.90;;;;;;4989376;28;20567;-83
2022/06/02 14:26:39;;;;;;;4.15;2.63;;;21.70;99.90;;;;;;5073326;28;20075;-81
2022/06/02 14:29:36;;;;;;;5.30;2.47;;;21.70;99.90;;;;;;5069260;28;20048;-81
2022/06/02 14:32:21;;;;;;;5.72;2.45;;;21.90;99.90;;;;;;5055946;28;20037;-82
2022/06/02 14:35:06;;;;;;;5.88;2.42;;;21.90;99.90;;;;;;5055144;28;20048;-82
2022/06/02 14:37:43;;;;;;;3.95;2.17;;;22.00;99.90;;;;;;5075989;28;20099;-82
2022/06/02 14:40:19;;;;;;;5.78;2.33;;;22.10;99.90;;;;;;5075578;28;20466;-82
2022/06/02 14:43:04;;;;;;;4.43;2.28;;;22.10;99.90;;;;;;5074063;28;20100;-83